sensor_id;sensor_type;location;lat;lon;timestamp;pressure;altitude;pressure_sealevel;temperature;humidity
10135;BME280;5107;48.850;8.924;2023-02-18T00:00:30;97676.88;;;11.37;77.79
10135;BME280;5107;48.850;8.924;2023-02-18T00:02:57;97677.16;;;11.34;78.18
10135;BME280;5107;48.850;8.924;2023-02-18T00:05:27;97673.84;;;11.32;78.33
10135;BME280;5107;48.850;8.924;2023-02-18T00:07:54;97688.53;;;11.35;78.17
10135;BME280;5107;48.850;8.924;2023-02-18T00:10:21;97674.66;;;11.33;77.93
10135;BME280;5107;48.850;8.924;2023-02-18T00:12:48;97679.94;;;11.33;78.04
10135;BME280;5107;48.850;8.924;2023-02-18T00:15:15;97682.88;;;11.30;78.38
10135;BME280;5107;48.850;8.924;2023-02-18T00:17:42;97682.97;;;11.38;77.82
10135;BME280;5107;48.850;8.924;2023-02-18T00:20:10;97687.56;;;11.36;77.84
10135;BME280;5107;48.850;8.924;2023-02-18T00:22:39;97699.06;;;11.35;77.92
10135;BME280;5107;48.850;8.924;2023-02-18T00:25:06;97695.75;;;11.33;78.44
10135;BME280;5107;48.850;8.924;2023-02-18T00:27:34;97702.13;;;11.30;78.27
10135;BME280;5107;48.850;8.924;2023-02-18T00:30:04;97705.31;;;11.34;78.25
10135;BME280;5107;48.850;8.924;2023-02-18T00:32:33;97710.59;;;11.34;77.96
10135;BME280;5107;48.850;8.924;2023-02-18T00:35:01;97698.09;;;11.36;77.99
10135;BME280;5107;48.850;8.924;2023-02-18T00:37:28;97691.53;;;11.40;77.46
10135;BME280;5107;48.850;8.924;2023-02-18T00:39:57;97697.94;;;11.37;77.72
10135;BME280;5107;48.850;8.924;2023-02-18T00:42:24;97684.59;;;11.39;77.64
10135;BME280;5107;48.850;8.924;2023-02-18T00:44:52;97686.59;;;11.37;77.63
10135;BME280;5107;48.850;8.924;2023-02-18T00:47:20;97691.84;;;11.37;77.82
10135;BME280;5107;48.850;8.924;2023-02-18T00:49:47;97688.91;;;11.40;77.26
10135;BME280;5107;48.850;8.924;2023-02-18T00:52:14;97687.56;;;11.36;77.66
10135;BME280;5107;48.850;8.924;2023-02-18T00:54:41;97681.59;;;11.34;77.79
10135;BME280;5107;48.850;8.924;2023-02-18T00:57:10;97687.22;;;11.39;77.43
10135;BME280;5107;48.850;8.924;2023-02-18T00:59:37;97693.19;;;11.41;77.32
10135;BME280;5107;48.850;8.924;2023-02-18T01:02:04;97689.03;;;11.38;77.10
10135;BME280;5107;48.850;8.924;2023-02-18T01:04:32;97694.31;;;11.38;77.22
10135;BME280;5107;48.850;8.924;2023-02-18T01:06:59;97687.41;;;11.37;77.46
10135;BME280;5107;48.850;8.924;2023-02-18T01:09:27;97686.72;;;11.35;77.10
10135;BME280;5107;48.850;8.924;2023-02-18T01:11:54;97688.53;;;11.35;77.39
10135;BME280;5107;48.850;8.924;2023-02-18T01:14:23;97685.06;;;11.34;77.33
10135;BME280;5107;48.850;8.924;2023-02-18T01:16:50;97680.09;;;11.31;77.42
10135;BME280;5107;48.850;8.924;2023-02-18T01:19:17;97671.53;;;11.29;77.74
10135;BME280;5107;48.850;8.924;2023-02-18T01:21:44;97675.28;;;11.27;77.50
10135;BME280;5107;48.850;8.924;2023-02-18T01:24:11;97665.03;;;11.24;78.19
10135;BME280;5107;48.850;8.924;2023-02-18T01:26:38;97662.78;;;11.29;77.73
10135;BME280;5107;48.850;8.924;2023-02-18T01:29:05;97666.53;;;11.26;77.41
10135;BME280;5107;48.850;8.924;2023-02-18T01:31:34;97666.69;;;11.25;77.66
10135;BME280;5107;48.850;8.924;2023-02-18T01:34:01;97668.97;;;11.20;78.21
10135;BME280;5107;48.850;8.924;2023-02-18T01:36:28;97660.38;;;11.18;78.33
10135;BME280;5107;48.850;8.924;2023-02-18T01:38:55;97659.25;;;11.20;77.91
10135;BME280;5107;48.850;8.924;2023-02-18T01:41:23;97667.59;;;11.16;78.30
10135;BME280;5107;48.850;8.924;2023-02-18T01:44:15;97666.06;;;11.13;78.19
10135;BME280;5107;48.850;8.924;2023-02-18T01:46:46;97658.72;;;11.17;77.93
10135;BME280;5107;48.850;8.924;2023-02-18T01:49:18;97657.59;;;11.19;78.10
10135;BME280;5107;48.850;8.924;2023-02-18T01:51:49;97647.75;;;11.21;77.51
10135;BME280;5107;48.850;8.924;2023-02-18T01:54:23;97649.75;;;11.27;76.90
10135;BME280;5107;48.850;8.924;2023-02-18T01:56:59;97659.06;;;11.22;77.39
10135;BME280;5107;48.850;8.924;2023-02-18T01:59:32;97648.72;;;11.20;77.45
10135;BME280;5107;48.850;8.924;2023-02-18T02:02:01;97639.28;;;11.18;77.72
10135;BME280;5107;48.850;8.924;2023-02-18T02:04:29;97646.38;;;11.17;77.30
10135;BME280;5107;48.850;8.924;2023-02-18T02:06:56;97642.63;;;11.20;77.30
10135;BME280;5107;48.850;8.924;2023-02-18T02:09:26;97637.34;;;11.20;77.29
10135;BME280;5107;48.850;8.924;2023-02-18T02:12:35;97643.94;;;11.24;76.81
10135;BME280;5107;48.850;8.924;2023-02-18T02:15:21;97647.28;;;11.26;77.08
10135;BME280;5107;48.850;8.924;2023-02-18T02:18:07;97638.69;;;11.24;77.01
10135;BME280;5107;48.850;8.924;2023-02-18T02:21:11;97646.44;;;11.25;77.11
10135;BME280;5107;48.850;8.924;2023-02-18T02:27:14;97641.03;;;11.27;77.06
10135;BME280;5107;48.850;8.924;2023-02-18T02:33:46;97639.22;;;11.27;76.69
10135;BME280;5107;48.850;8.924;2023-02-18T02:36:19;97633.97;;;11.27;75.92
10135;BME280;5107;48.850;8.924;2023-02-18T02:38:55;97627.53;;;11.30;75.50
10135;BME280;5107;48.850;8.924;2023-02-18T02:41:38;97616.69;;;11.33;74.95
10135;BME280;5107;48.850;8.924;2023-02-18T02:44:20;97619.72;;;11.38;74.42
10135;BME280;5107;48.850;8.924;2023-02-18T02:46:50;97618.91;;;11.37;74.61
10135;BME280;5107;48.850;8.924;2023-02-18T02:49:31;97619.41;;;11.41;73.98
10135;BME280;5107;48.850;8.924;2023-02-18T02:52:05;97613.16;;;11.42;73.82
10135;BME280;5107;48.850;8.924;2023-02-18T02:54:36;97618.91;;;11.37;73.88
10135;BME280;5107;48.850;8.924;2023-02-18T03:00:04;97616.91;;;11.39;74.28
10135;BME280;5107;48.850;8.924;2023-02-18T03:02:45;97619.72;;;11.38;74.02
10135;BME280;5107;48.850;8.924;2023-02-18T03:05:28;97621.34;;;11.39;74.10
10135;BME280;5107;48.850;8.924;2023-02-18T03:08:13;97610.00;;;11.38;74.33
10135;BME280;5107;48.850;8.924;2023-02-18T03:10:52;97607.53;;;11.37;74.51
10135;BME280;5107;48.850;8.924;2023-02-18T03:13:32;97591.88;;;11.35;74.44
10135;BME280;5107;48.850;8.924;2023-02-18T03:16:12;97598.25;;;11.33;74.51
10135;BME280;5107;48.850;8.924;2023-02-18T03:18:47;97589.53;;;11.32;74.57
10135;BME280;5107;48.850;8.924;2023-02-18T03:21:22;97592.31;;;11.31;74.56
10135;BME280;5107;48.850;8.924;2023-02-18T03:23:56;97591.31;;;11.32;74.98
10135;BME280;5107;48.850;8.924;2023-02-18T03:26:28;97575.47;;;11.24;75.83
10135;BME280;5107;48.850;8.924;2023-02-18T03:29:02;97585.63;;;11.19;75.99
10135;BME280;5107;48.850;8.924;2023-02-18T03:31:30;97578.84;;;11.16;76.32
10135;BME280;5107;48.850;8.924;2023-02-18T03:34:05;97576.75;;;11.20;76.61
10135;BME280;5107;48.850;8.924;2023-02-18T03:36:36;97574.56;;;11.15;76.69
10135;BME280;5107;48.850;8.924;2023-02-18T03:39:09;97577.50;;;11.12;77.09
10135;BME280;5107;48.850;8.924;2023-02-18T03:41:37;97580.97;;;11.13;77.07
10135;BME280;5107;48.850;8.924;2023-02-18T03:44:07;97585.63;;;11.19;76.58
10135;BME280;5107;48.850;8.924;2023-02-18T03:46:36;97586.97;;;11.23;76.21
10135;BME280;5107;48.850;8.924;2023-02-18T03:49:04;97585.16;;;11.23;75.97
10135;BME280;5107;48.850;8.924;2023-02-18T03:51:31;97588.34;;;11.27;75.99
10135;BME280;5107;48.850;8.924;2023-02-18T03:53:58;97587.22;;;11.29;75.74
10135;BME280;5107;48.850;8.924;2023-02-18T03:56:27;97595.91;;;11.30;75.58
10135;BME280;5107;48.850;8.924;2023-02-18T03:58:54;97595.91;;;11.30;75.57
10135;BME280;5107;48.850;8.924;2023-02-18T04:01:21;97591.47;;;11.30;75.69
10135;BME280;5107;48.850;8.924;2023-02-18T04:03:48;97590.00;;;11.28;75.35
10135;BME280;5107;48.850;8.924;2023-02-18T04:06:15;97588.41;;;11.35;74.97
10135;BME280;5107;48.850;8.924;2023-02-18T04:08:43;97581.47;;;11.34;74.55
10135;BME280;5107;48.850;8.924;2023-02-18T04:11:10;97579.81;;;11.33;74.75
10135;BME280;5107;48.850;8.924;2023-02-18T04:13:38;97583.13;;;11.35;74.12
10135;BME280;5107;48.850;8.924;2023-02-18T04:16:06;97587.56;;;11.34;73.96
10135;BME280;5107;48.850;8.924;2023-02-18T04:18:33;97575.22;;;11.35;74.20
10135;BME280;5107;48.850;8.924;2023-02-18T04:21:00;97567.31;;;11.35;73.55
10135;BME280;5107;48.850;8.924;2023-02-18T04:23:27;97568.84;;;11.37;73.01
10135;BME280;5107;48.850;8.924;2023-02-18T04:25:54;97575.28;;;11.43;72.99
10135;BME280;5107;48.850;8.924;2023-02-18T04:28:21;97572.81;;;11.41;72.69
10135;BME280;5107;48.850;8.924;2023-02-18T04:30:50;97567.81;;;11.38;72.32
10135;BME280;5107;48.850;8.924;2023-02-18T04:33:17;97568.34;;;11.42;72.12
10135;BME280;5107;48.850;8.924;2023-02-18T04:35:43;97572.66;;;11.43;71.94
10135;BME280;5107;48.850;8.924;2023-02-18T04:38:13;97584.47;;;11.39;71.86
10135;BME280;5107;48.850;8.924;2023-02-18T04:40:40;97574.25;;;11.36;72.12
10135;BME280;5107;48.850;8.924;2023-02-18T04:43:07;97573.84;;;11.31;72.40
10135;BME280;5107;48.850;8.924;2023-02-18T04:45:34;97575.53;;;11.32;72.05
10135;BME280;5107;48.850;8.924;2023-02-18T04:48:03;97569.56;;;11.30;71.83
10135;BME280;5107;48.850;8.924;2023-02-18T04:50:30;97572.19;;;11.30;72.11
10135;BME280;5107;48.850;8.924;2023-02-18T04:52:57;97569.75;;;11.28;72.18
10135;BME280;5107;48.850;8.924;2023-02-18T04:55:24;97566.28;;;11.28;71.99
10135;BME280;5107;48.850;8.924;2023-02-18T04:57:52;97562.34;;;11.32;71.75
10135;BME280;5107;48.850;8.924;2023-02-18T05:00:19;97560.03;;;11.29;71.84
10135;BME280;5107;48.850;8.924;2023-02-18T05:02:47;97568.09;;;11.27;71.99
10135;BME280;5107;48.850;8.924;2023-02-18T05:05:15;97573.41;;;11.35;70.96
10135;BME280;5107;48.850;8.924;2023-02-18T05:07:42;97575.22;;;11.35;71.17
10135;BME280;5107;48.850;8.924;2023-02-18T05:10:11;97575.91;;;11.37;71.10
10135;BME280;5107;48.850;8.924;2023-02-18T05:12:40;97561.28;;;11.43;70.63
10135;BME280;5107;48.850;8.924;2023-02-18T05:15:08;97571.97;;;11.41;70.69
10135;BME280;5107;48.850;8.924;2023-02-18T05:17:35;97560.16;;;11.45;70.84
10135;BME280;5107;48.850;8.924;2023-02-18T05:20:02;97565.25;;;11.47;70.87
10135;BME280;5107;48.850;8.924;2023-02-18T05:22:31;97565.94;;;11.49;70.66
10135;BME280;5107;48.850;8.924;2023-02-18T05:24:58;97566.06;;;11.47;70.69
10135;BME280;5107;48.850;8.924;2023-02-18T05:27:25;97558.56;;;11.52;70.86
10135;BME280;5107;48.850;8.924;2023-02-18T05:29:52;97552.31;;;11.53;70.76
10135;BME280;5107;48.850;8.924;2023-02-18T05:32:19;97554.25;;;11.51;71.01
10135;BME280;5107;48.850;8.924;2023-02-18T05:34:46;97553.72;;;11.48;70.55
10135;BME280;5107;48.850;8.924;2023-02-18T05:37:13;97550.94;;;11.49;70.57
10135;BME280;5107;48.850;8.924;2023-02-18T05:39:41;97542.47;;;11.63;69.21
10135;BME280;5107;48.850;8.924;2023-02-18T05:42:08;97546.09;;;11.62;69.83
10135;BME280;5107;48.850;8.924;2023-02-18T05:44:36;97546.25;;;11.61;69.42
10135;BME280;5107;48.850;8.924;2023-02-18T05:47:06;97546.09;;;11.62;69.33
10135;BME280;5107;48.850;8.924;2023-02-18T05:49:34;97546.41;;;11.59;69.48
10135;BME280;5107;48.850;8.924;2023-02-18T05:52:03;97542.09;;;11.58;69.31
10135;BME280;5107;48.850;8.924;2023-02-18T05:54:30;97544.91;;;11.57;69.68
10135;BME280;5107;48.850;8.924;2023-02-18T05:56:59;97541.91;;;11.52;70.16
10135;BME280;5107;48.850;8.924;2023-02-18T05:59:26;97549.97;;;11.50;70.05
10135;BME280;5107;48.850;8.924;2023-02-18T06:01:53;97549.13;;;11.50;70.23
10135;BME280;5107;48.850;8.924;2023-02-18T06:04:20;97559.38;;;11.53;70.38
10135;BME280;5107;48.850;8.924;2023-02-18T06:06:47;97554.59;;;11.56;70.49
10135;BME280;5107;48.850;8.924;2023-02-18T06:09:14;97552.66;;;11.58;70.03
10135;BME280;5107;48.850;8.924;2023-02-18T06:11:42;97552.94;;;11.55;70.31
10135;BME280;5107;48.850;8.924;2023-02-18T06:14:10;97532.69;;;11.56;70.33
10135;BME280;5107;48.850;8.924;2023-02-18T06:16:37;97534.88;;;11.60;69.79
10135;BME280;5107;48.850;8.924;2023-02-18T06:19:04;97534.06;;;11.60;69.91
10135;BME280;5107;48.850;8.924;2023-02-18T06:21:31;97528.25;;;11.56;70.21
10135;BME280;5107;48.850;8.924;2023-02-18T06:23:58;97535.19;;;11.57;70.24
10135;BME280;5107;48.850;8.924;2023-02-18T06:26:26;97524.63;;;11.57;69.80
10135;BME280;5107;48.850;8.924;2023-02-18T06:28:53;97529.09;;;11.57;69.93
10135;BME280;5107;48.850;8.924;2023-02-18T06:31:21;97531.88;;;11.55;69.74
10135;BME280;5107;48.850;8.924;2023-02-18T06:33:48;97536.84;;;11.58;69.86
10135;BME280;5107;48.850;8.924;2023-02-18T06:36:15;97543.63;;;11.61;69.63
10135;BME280;5107;48.850;8.924;2023-02-18T06:38:44;97545.63;;;11.67;69.34
10135;BME280;5107;48.850;8.924;2023-02-18T06:41:12;97553.38;;;11.68;69.67
10135;BME280;5107;48.850;8.924;2023-02-18T06:43:40;97548.19;;;11.76;69.42
10135;BME280;5107;48.850;8.924;2023-02-18T06:46:07;97550.53;;;11.80;69.34
10135;BME280;5107;48.850;8.924;2023-02-18T06:48:35;97555.47;;;11.83;68.72
10135;BME280;5107;48.850;8.924;2023-02-18T06:51:04;97556.81;;;11.87;68.62
10135;BME280;5107;48.850;8.924;2023-02-18T06:53:31;97542.28;;;11.83;68.75
10135;BME280;5107;48.850;8.924;2023-02-18T06:55:58;97536.81;;;11.76;69.50
10135;BME280;5107;48.850;8.924;2023-02-18T06:58:25;97530.56;;;11.77;69.20
10135;BME280;5107;48.850;8.924;2023-02-18T07:00:52;97547.22;;;11.77;69.12
10135;BME280;5107;48.850;8.924;2023-02-18T07:03:19;97543.91;;;11.75;69.53
10135;BME280;5107;48.850;8.924;2023-02-18T07:05:48;97537.66;;;11.76;69.46
10135;BME280;5107;48.850;8.924;2023-02-18T07:08:15;97540.31;;;11.85;69.16
10135;BME280;5107;48.850;8.924;2023-02-18T07:10:42;97538.22;;;11.88;68.45
10135;BME280;5107;48.850;8.924;2023-02-18T07:13:09;97539.69;;;11.91;68.92
10135;BME280;5107;48.850;8.924;2023-02-18T07:15:36;97531.47;;;11.94;68.77
10135;BME280;5107;48.850;8.924;2023-02-18T07:18:04;97535.63;;;11.96;68.33
10135;BME280;5107;48.850;8.924;2023-02-18T07:20:31;97528.84;;;11.94;68.44
10135;BME280;5107;48.850;8.924;2023-02-18T07:23:00;97509.38;;;11.95;68.45
10135;BME280;5107;48.850;8.924;2023-02-18T07:25:27;97506.22;;;11.91;68.63
10135;BME280;5107;48.850;8.924;2023-02-18T07:27:54;97507.59;;;11.95;68.06
10135;BME280;5107;48.850;8.924;2023-02-18T07:30:21;97510.72;;;11.99;68.29
10135;BME280;5107;48.850;8.924;2023-02-18T07:32:48;97504.44;;;12.00;68.12
10135;BME280;5107;48.850;8.924;2023-02-18T07:35:16;97508.91;;;11.99;68.57
10135;BME280;5107;48.850;8.924;2023-02-18T07:37:44;97508.75;;;12.01;68.10
10135;BME280;5107;48.850;8.924;2023-02-18T07:40:15;97499.84;;;12.02;68.26
10135;BME280;5107;48.850;8.924;2023-02-18T07:42:42;97504.44;;;12.00;68.53
10135;BME280;5107;48.850;8.924;2023-02-18T07:45:10;97486.97;;;11.99;68.60
10135;BME280;5107;48.850;8.924;2023-02-18T07:47:38;97495.91;;;12.06;68.20
10135;BME280;5107;48.850;8.924;2023-02-18T07:50:07;97495.75;;;12.07;68.09
10135;BME280;5107;48.850;8.924;2023-02-18T07:52:35;97501.38;;;12.12;67.92
10135;BME280;5107;48.850;8.924;2023-02-18T07:55:02;97506.47;;;12.14;67.80
10135;BME280;5107;48.850;8.924;2023-02-18T07:57:30;97498.41;;;12.15;67.61
10135;BME280;5107;48.850;8.924;2023-02-18T07:59:57;97508.97;;;12.15;68.24
10135;BME280;5107;48.850;8.924;2023-02-18T08:02:24;97508.97;;;12.15;68.01
10135;BME280;5107;48.850;8.924;2023-02-18T08:04:51;97497.94;;;12.20;67.46
10135;BME280;5107;48.850;8.924;2023-02-18T08:07:20;97504.22;;;12.19;67.83
10135;BME280;5107;48.850;8.924;2023-02-18T08:09:47;97504.88;;;12.21;67.43
10135;BME280;5107;48.850;8.924;2023-02-18T08:12:15;97512.28;;;12.18;68.04
10135;BME280;5107;48.850;8.924;2023-02-18T08:14:44;97504.22;;;12.19;67.81
10135;BME280;5107;48.850;8.924;2023-02-18T08:17:11;97510.50;;;12.26;67.00
10135;BME280;5107;48.850;8.924;2023-02-18T08:19:38;97497.97;;;12.28;66.64
10135;BME280;5107;48.850;8.924;2023-02-18T08:22:05;97503.25;;;12.28;66.95
10135;BME280;5107;48.850;8.924;2023-02-18T08:24:32;97501.59;;;12.27;66.84
10135;BME280;5107;48.850;8.924;2023-02-18T08:26:59;97491.03;;;12.27;66.94
10135;BME280;5107;48.850;8.924;2023-02-18T08:29:27;97494.34;;;12.29;67.08
10135;BME280;5107;48.850;8.924;2023-02-18T08:31:55;97501.25;;;12.30;67.15
10135;BME280;5107;48.850;8.924;2023-02-18T08:34:24;97490.38;;;12.33;66.81
10135;BME280;5107;48.850;8.924;2023-02-18T08:36:51;97480.66;;;12.34;66.79
10135;BME280;5107;48.850;8.924;2023-02-18T08:39:18;97462.84;;;12.36;66.83
10135;BME280;5107;48.850;8.924;2023-02-18T08:41:45;97486.44;;;12.37;67.27
10135;BME280;5107;48.850;8.924;2023-02-18T08:44:12;97486.09;;;12.40;66.75
10135;BME280;5107;48.850;8.924;2023-02-18T08:46:39;97482.16;;;12.44;66.68
10135;BME280;5107;48.850;8.924;2023-02-18T08:49:08;97484.66;;;12.46;66.54
10135;BME280;5107;48.850;8.924;2023-02-18T08:51:35;97484.31;;;12.49;67.31
10135;BME280;5107;48.850;8.924;2023-02-18T08:54:02;97482.34;;;12.51;67.05
10135;BME280;5107;48.850;8.924;2023-02-18T08:56:29;97490.25;;;12.51;67.37
10135;BME280;5107;48.850;8.924;2023-02-18T08:58:58;97482.34;;;12.51;67.25
10135;BME280;5107;48.850;8.924;2023-02-18T09:01:25;97486.78;;;12.50;67.38
10135;BME280;5107;48.850;8.924;2023-02-18T09:03:52;97480.69;;;12.50;67.25
10135;BME280;5107;48.850;8.924;2023-02-18T09:06:21;97477.06;;;12.51;68.15
10135;BME280;5107;48.850;8.924;2023-02-18T09:08:48;97463.03;;;12.50;68.28
10135;BME280;5107;48.850;8.924;2023-02-18T09:11:16;97472.09;;;12.48;68.10
10135;BME280;5107;48.850;8.924;2023-02-18T09:13:44;97475.91;;;12.53;68.17
10135;BME280;5107;48.850;8.924;2023-02-18T09:16:14;97460.41;;;12.59;67.20
10135;BME280;5107;48.850;8.924;2023-02-18T09:18:43;97461.91;;;12.61;67.78
10135;BME280;5107;48.850;8.924;2023-02-18T09:21:11;97469.00;;;12.69;67.32
10135;BME280;5107;48.850;8.924;2023-02-18T09:23:41;97458.75;;;12.74;67.58
10135;BME280;5107;48.850;8.924;2023-02-18T09:26:13;97449.84;;;12.75;66.78
10135;BME280;5107;48.850;8.924;2023-02-18T09:28:40;97458.44;;;12.77;66.63
10135;BME280;5107;48.850;8.924;2023-02-18T09:31:12;97459.75;;;12.73;67.12
10135;BME280;5107;48.850;8.924;2023-02-18T09:33:43;97464.03;;;12.66;67.66
10135;BME280;5107;48.850;8.924;2023-02-18T09:36:11;97470.66;;;12.70;67.13
10135;BME280;5107;48.850;8.924;2023-02-18T09:38:40;97463.72;;;12.77;67.36
10135;BME280;5107;48.850;8.924;2023-02-18T09:41:09;97464.03;;;12.82;65.90
10135;BME280;5107;48.850;8.924;2023-02-18T09:43:44;97456.63;;;12.85;65.50
10135;BME280;5107;48.850;8.924;2023-02-18T09:46:19;97468.34;;;12.91;65.27
10135;BME280;5107;48.850;8.924;2023-02-18T09:48:48;97462.56;;;12.96;65.27
10135;BME280;5107;48.850;8.924;2023-02-18T09:51:17;97459.78;;;12.97;65.21
10135;BME280;5107;48.850;8.924;2023-02-18T09:53:46;97462.41;;;12.97;65.13
10135;BME280;5107;48.850;8.924;2023-02-18T09:56:17;97463.41;;;13.04;64.56
10135;BME280;5107;48.850;8.924;2023-02-18T09:58:46;97467.69;;;13.05;65.16
10135;BME280;5107;48.850;8.924;2023-02-18T10:01:21;97475.94;;;13.02;64.23
10135;BME280;5107;48.850;8.924;2023-02-18T10:03:51;97464.38;;;12.95;63.56
10135;BME280;5107;48.850;8.924;2023-02-18T10:06:23;97475.13;;;12.85;64.22
10135;BME280;5107;48.850;8.924;2023-02-18T10:08:53;97469.66;;;12.79;64.72
10135;BME280;5107;48.850;8.924;2023-02-18T10:11:29;97469.84;;;12.77;65.08
10135;BME280;5107;48.850;8.924;2023-02-18T10:13:58;97460.75;;;12.80;64.49
10135;BME280;5107;48.850;8.924;2023-02-18T10:16:28;97470.66;;;12.86;64.79
10135;BME280;5107;48.850;8.924;2023-02-18T10:18:57;97473.97;;;12.88;64.81
10135;BME280;5107;48.850;8.924;2023-02-18T10:21:27;97462.06;;;12.92;64.69
10135;BME280;5107;48.850;8.924;2023-02-18T10:24:03;97466.03;;;12.96;64.20
10135;BME280;5107;48.850;8.924;2023-02-18T10:26:34;97475.09;;;13.02;63.98
10135;BME280;5107;48.850;8.924;2023-02-18T10:29:02;97481.88;;;13.04;64.09
10135;BME280;5107;48.850;8.924;2023-02-18T10:31:33;97459.09;;;13.03;64.09
10135;BME280;5107;48.850;8.924;2023-02-18T10:34:12;97468.31;;;13.07;63.79
10135;BME280;5107;48.850;8.924;2023-02-18T10:36:48;97478.28;;;13.13;64.23
10135;BME280;5107;48.850;8.924;2023-02-18T10:39:44;97468.34;;;13.15;63.58
10135;BME280;5107;48.850;8.924;2023-02-18T10:42:29;97471.19;;;13.14;64.27
10135;BME280;5107;48.850;8.924;2023-02-18T10:45:12;97470.34;;;13.13;64.01
10135;BME280;5107;48.850;8.924;2023-02-18T10:47:49;97462.75;;;13.18;63.94
10135;BME280;5107;48.850;8.924;2023-02-18T10:50:26;97466.19;;;13.27;64.24
10135;BME280;5107;48.850;8.924;2023-02-18T10:52:58;97465.06;;;13.21;63.47
10135;BME280;5107;48.850;8.924;2023-02-18T10:55:37;97459.94;;;13.20;63.00
10135;BME280;5107;48.850;8.924;2023-02-18T10:58:27;97446.88;;;13.18;63.01
10135;BME280;5107;48.850;8.924;2023-02-18T11:00:55;97451.00;;;13.13;63.25
10135;BME280;5107;48.850;8.924;2023-02-18T11:03:25;97456.13;;;13.14;63.52
10135;BME280;5107;48.850;8.924;2023-02-18T11:05:55;97457.63;;;13.17;64.30
10135;BME280;5107;48.850;8.924;2023-02-18T11:08:26;97458.59;;;13.24;64.05
10135;BME280;5107;48.850;8.924;2023-02-18T11:10:55;97453.81;;;13.19;62.75
10135;BME280;5107;48.850;8.924;2023-02-18T11:13:26;97436.97;;;13.20;63.36
10135;BME280;5107;48.850;8.924;2023-02-18T11:15:58;97454.09;;;13.41;62.79
10135;BME280;5107;48.850;8.924;2023-02-18T11:18:36;97438.72;;;13.44;61.77
10135;BME280;5107;48.850;8.924;2023-02-18T11:21:17;97445.03;;;13.35;62.38
10135;BME280;5107;48.850;8.924;2023-02-18T11:23:47;97430.81;;;13.36;62.29
10135;BME280;5107;48.850;8.924;2023-02-18T11:26:19;97431.00;;;13.35;62.57
10135;BME280;5107;48.850;8.924;2023-02-18T11:28:50;97435.75;;;13.39;62.36
10135;BME280;5107;48.850;8.924;2023-02-18T11:31:25;97425.06;;;13.24;61.75
10135;BME280;5107;48.850;8.924;2023-02-18T11:33:55;97430.69;;;13.29;62.25
10135;BME280;5107;48.850;8.924;2023-02-18T11:36:28;97435.25;;;13.44;62.31
10135;BME280;5107;48.850;8.924;2023-02-18T11:38:57;97425.38;;;13.38;62.44
10135;BME280;5107;48.850;8.924;2023-02-18T11:41:34;97420.09;;;13.38;61.95
10135;BME280;5107;48.850;8.924;2023-02-18T11:44:06;97410.84;;;13.34;62.80
10135;BME280;5107;48.850;8.924;2023-02-18T11:46:34;97417.41;;;13.46;62.00
10135;BME280;5107;48.850;8.924;2023-02-18T11:49:21;97415.06;;;13.51;62.33
10135;BME280;5107;48.850;8.924;2023-02-18T11:51:49;97406.88;;;13.38;62.06
10135;BME280;5107;48.850;8.924;2023-02-18T11:54:24;97429.16;;;13.43;62.40
10135;BME280;5107;48.850;8.924;2023-02-18T11:56:58;97419.75;;;13.33;62.55
10135;BME280;5107;48.850;8.924;2023-02-18T11:59:31;97433.63;;;13.35;62.92
10135;BME280;5107;48.850;8.924;2023-02-18T12:02:05;97419.72;;;13.41;62.52
10135;BME280;5107;48.850;8.924;2023-02-18T12:04:44;97418.44;;;13.37;62.63
10135;BME280;5107;48.850;8.924;2023-02-18T12:07:19;97422.91;;;13.36;62.79
10135;BME280;5107;48.850;8.924;2023-02-18T12:09:55;97421.44;;;13.25;62.92
10135;BME280;5107;48.850;8.924;2023-02-18T12:12:29;97422.94;;;13.20;63.25
10135;BME280;5107;48.850;8.924;2023-02-18T12:14:58;97406.91;;;13.21;63.27
10135;BME280;5107;48.850;8.924;2023-02-18T12:17:44;97397.16;;;13.22;63.16
10135;BME280;5107;48.850;8.924;2023-02-18T12:21:07;97399.97;;;13.12;62.53
10135;BME280;5107;48.850;8.924;2023-02-18T12:23:49;97414.19;;;13.03;63.06
10135;BME280;5107;48.850;8.924;2023-02-18T12:26:24;97402.78;;;12.95;62.81
10135;BME280;5107;48.850;8.924;2023-02-18T12:29:26;97411.41;;;12.88;63.66
10135;BME280;5107;48.850;8.924;2023-02-18T12:32:10;97406.28;;;12.87;63.58
10135;BME280;5107;48.850;8.924;2023-02-18T12:34:52;97400.66;;;12.82;64.23
10135;BME280;5107;48.850;8.924;2023-02-18T12:38:04;97413.53;;;12.77;64.68
10135;BME280;5107;48.850;8.924;2023-02-18T12:40:49;97402.66;;;12.72;64.59
10135;BME280;5107;48.850;8.924;2023-02-18T12:43:26;97397.38;;;12.72;64.67
10135;BME280;5107;48.850;8.924;2023-02-18T12:46:21;97374.75;;;12.69;64.69
10135;BME280;5107;48.850;8.924;2023-02-18T12:49:08;97398.84;;;12.66;64.77
10135;BME280;5107;48.850;8.924;2023-02-18T12:51:53;97402.31;;;12.67;65.20
10135;BME280;5107;48.850;8.924;2023-02-18T12:54:56;97387.47;;;12.66;65.40
10135;BME280;5107;48.850;8.924;2023-02-18T12:57:41;97390.25;;;12.64;65.71
10135;BME280;5107;48.850;8.924;2023-02-18T13:00:44;97384.16;;;12.64;65.37
10135;BME280;5107;48.850;8.924;2023-02-18T13:03:45;97392.91;;;12.64;65.61
10135;BME280;5107;48.850;8.924;2023-02-18T13:06:29;97394.06;;;12.62;65.35
10135;BME280;5107;48.850;8.924;2023-02-18T13:09:07;97407.44;;;12.60;65.46
10135;BME280;5107;48.850;8.924;2023-02-18T13:11:46;97384.81;;;12.58;65.42
10135;BME280;5107;48.850;8.924;2023-02-18T13:14:19;97396.38;;;12.57;65.56
10135;BME280;5107;48.850;8.924;2023-02-18T13:16:51;97384.16;;;12.55;65.81
10135;BME280;5107;48.850;8.924;2023-02-18T13:19:23;97373.78;;;12.54;65.95
10135;BME280;5107;48.850;8.924;2023-02-18T13:21:55;97377.25;;;12.54;65.99
10135;BME280;5107;48.850;8.924;2023-02-18T13:24:31;97375.59;;;12.53;65.61
10135;BME280;5107;48.850;8.924;2023-02-18T13:27:07;97363.03;;;12.55;65.65
10135;BME280;5107;48.850;8.924;2023-02-18T13:29:46;97360.06;;;12.59;65.22
10135;BME280;5107;48.850;8.924;2023-02-18T13:32:22;97369.31;;;12.63;65.26
10135;BME280;5107;48.850;8.924;2023-02-18T13:35:00;97350.84;;;12.63;65.14
10135;BME280;5107;48.850;8.924;2023-02-18T13:37:40;97364.53;;;12.66;64.92
10135;BME280;5107;48.850;8.924;2023-02-18T13:40:17;97351.31;;;12.66;65.09
10135;BME280;5107;48.850;8.924;2023-02-18T13:42:47;97346.88;;;12.67;65.25